sensor_id;sensor_type;location;lat;lon;timestamp;P1;durP1;ratioP1;P2;durP2;ratioP2
3757;SDS011;1894;51.038;13.692;2023-06-19T00:01:08;13.77;;;11.07;;
3757;SDS011;1894;51.038;13.692;2023-06-19T00:03:35;14.80;;;10.17;;
3757;SDS011;1894;51.038;13.692;2023-06-19T00:06:02;9.77;;;8.50;;
3757;SDS011;1894;51.038;13.692;2023-06-19T00:08:29;13.53;;;11.60;;
3757;SDS011;1894;51.038;13.692;2023-06-19T00:10:57;11.40;;;10.17;;
3757;SDS011;1894;51.038;13.692;2023-06-19T00:13:24;13.93;;;10.20;;
3757;SDS011;1894;51.038;13.692;2023-06-19T00:15:51;11.60;;;10.43;;
3757;SDS011;1894;51.038;13.692;2023-06-19T00:18:18;10.67;;;9.57;;
3757;SDS011;1894;51.038;13.692;2023-06-19T00:20:46;10.93;;;9.83;;
3757;SDS011;1894;51.038;13.692;2023-06-19T00:23:13;12.67;;;11.37;;
3757;SDS011;1894;51.038;13.692;2023-06-19T00:25:43;14.03;;;10.43;;
3757;SDS011;1894;51.038;13.692;2023-06-19T00:28:11;11.27;;;10.13;;
3757;SDS011;1894;51.038;13.692;2023-06-19T00:30:40;11.50;;;10.30;;
3757;SDS011;1894;51.038;13.692;2023-06-19T00:33:07;11.30;;;10.20;;
3757;SDS011;1894;51.038;13.692;2023-06-19T00:35:35;14.07;;;11.40;;
3757;SDS011;1894;51.038;13.692;2023-06-19T00:38:02;14.83;;;11.60;;
3757;SDS011;1894;51.038;13.692;2023-06-19T00:40:30;11.97;;;9.67;;
3757;SDS011;1894;51.038;13.692;2023-06-19T00:42:59;16.50;;;11.67;;
3757;SDS011;1894;51.038;13.692;2023-06-19T00:45:27;14.90;;;11.80;;
3757;SDS011;1894;51.038;13.692;2023-06-19T00:47:55;15.63;;;14.00;;
3757;SDS011;1894;51.038;13.692;2023-06-19T00:50:24;12.03;;;10.67;;
3757;SDS011;1894;51.038;13.692;2023-06-19T00:52:52;14.00;;;11.40;;
3757;SDS011;1894;51.038;13.692;2023-06-19T00:55:19;11.90;;;10.67;;
3757;SDS011;1894;51.038;13.692;2023-06-19T00:57:48;13.23;;;11.63;;
3757;SDS011;1894;51.038;13.692;2023-06-19T01:00:17;12.90;;;11.60;;
3757;SDS011;1894;51.038;13.692;2023-06-19T01:02:44;11.70;;;10.07;;
3757;SDS011;1894;51.038;13.692;2023-06-19T01:05:13;12.87;;;11.50;;
3757;SDS011;1894;51.038;13.692;2023-06-19T01:10:16;16.87;;;12.40;;
3757;SDS011;1894;51.038;13.692;2023-06-19T01:12:52;14.20;;;10.80;;
3757;SDS011;1894;51.038;13.692;2023-06-19T01:15:28;14.93;;;12.07;;
3757;SDS011;1894;51.038;13.692;2023-06-19T01:17:56;14.63;;;11.60;;
3757;SDS011;1894;51.038;13.692;2023-06-19T01:20:25;13.30;;;11.10;;
3757;SDS011;1894;51.038;13.692;2023-06-19T01:22:52;13.17;;;11.77;;
3757;SDS011;1894;51.038;13.692;2023-06-19T01:25:23;14.67;;;11.80;;
3757;SDS011;1894;51.038;13.692;2023-06-19T01:27:51;13.13;;;11.80;;
3757;SDS011;1894;51.038;13.692;2023-06-19T01:30:18;14.13;;;10.90;;
3757;SDS011;1894;51.038;13.692;2023-06-19T01:32:53;13.70;;;11.80;;
3757;SDS011;1894;51.038;13.692;2023-06-19T01:35:31;12.50;;;11.30;;
3757;SDS011;1894;51.038;13.692;2023-06-19T01:38:00;13.67;;;11.50;;
3757;SDS011;1894;51.038;13.692;2023-06-19T01:40:31;11.87;;;10.77;;
3757;SDS011;1894;51.038;13.692;2023-06-19T01:43:03;12.60;;;11.17;;
3757;SDS011;1894;51.038;13.692;2023-06-19T01:45:32;13.83;;;11.27;;
3757;SDS011;1894;51.038;13.692;2023-06-19T01:47:59;13.10;;;11.40;;
3757;SDS011;1894;51.038;13.692;2023-06-19T01:50:26;13.30;;;11.90;;
3757;SDS011;1894;51.038;13.692;2023-06-19T01:52:53;12.67;;;11.17;;
3757;SDS011;1894;51.038;13.692;2023-06-19T01:55:22;13.50;;;11.30;;
3757;SDS011;1894;51.038;13.692;2023-06-19T01:57:49;14.57;;;11.60;;
3757;SDS011;1894;51.038;13.692;2023-06-19T02:00:16;12.37;;;11.13;;
3757;SDS011;1894;51.038;13.692;2023-06-19T02:02:43;13.57;;;11.77;;
3757;SDS011;1894;51.038;13.692;2023-06-19T02:05:11;14.60;;;12.63;;
3757;SDS011;1894;51.038;13.692;2023-06-19T02:07:38;13.13;;;11.80;;
3757;SDS011;1894;51.038;13.692;2023-06-19T02:10:05;12.50;;;11.30;;
3757;SDS011;1894;51.038;13.692;2023-06-19T02:12:32;14.20;;;11.73;;
3757;SDS011;1894;51.038;13.692;2023-06-19T02:15:00;14.03;;;11.43;;
3757;SDS011;1894;51.038;13.692;2023-06-19T02:17:27;13.50;;;11.40;;
3757;SDS011;1894;51.038;13.692;2023-06-19T02:19:55;16.83;;;11.47;;
3757;SDS011;1894;51.038;13.692;2023-06-19T02:22:22;13.40;;;11.90;;
3757;SDS011;1894;51.038;13.692;2023-06-19T02:24:52;16.00;;;11.30;;
3757;SDS011;1894;51.038;13.692;2023-06-19T02:27:19;12.20;;;10.90;;
3757;SDS011;1894;51.038;13.692;2023-06-19T02:29:46;13.73;;;12.03;;
3757;SDS011;1894;51.038;13.692;2023-06-19T02:32:13;16.53;;;12.40;;
3757;SDS011;1894;51.038;13.692;2023-06-19T02:34:40;15.67;;;12.90;;
3757;SDS011;1894;51.038;13.692;2023-06-19T02:37:07;18.13;;;12.00;;
3757;SDS011;1894;51.038;13.692;2023-06-19T02:39:36;11.70;;;10.57;;
3757;SDS011;1894;51.038;13.692;2023-06-19T02:42:03;13.47;;;11.43;;
3757;SDS011;1894;51.038;13.692;2023-06-19T02:44:31;14.20;;;12.13;;
3757;SDS011;1894;51.038;13.692;2023-06-19T02:46:58;14.77;;;12.97;;
3757;SDS011;1894;51.038;13.692;2023-06-19T02:49:25;16.23;;;13.23;;
3757;SDS011;1894;51.038;13.692;2023-06-19T02:51:52;14.90;;;13.00;;
3757;SDS011;1894;51.038;13.692;2023-06-19T02:54:19;13.13;;;11.53;;
3757;SDS011;1894;51.038;13.692;2023-06-19T02:56:46;21.63;;;13.20;;
3757;SDS011;1894;51.038;13.692;2023-06-19T02:59:16;13.80;;;12.43;;
3757;SDS011;1894;51.038;13.692;2023-06-19T03:01:43;13.43;;;12.13;;
3757;SDS011;1894;51.038;13.692;2023-06-19T03:04:12;13.63;;;12.30;;
3757;SDS011;1894;51.038;13.692;2023-06-19T03:06:40;13.83;;;10.93;;
3757;SDS011;1894;51.038;13.692;2023-06-19T03:09:07;12.93;;;11.63;;
3757;SDS011;1894;51.038;13.692;2023-06-19T03:11:39;15.37;;;12.53;;
3757;SDS011;1894;51.038;13.692;2023-06-19T03:14:06;13.20;;;11.80;;
3757;SDS011;1894;51.038;13.692;2023-06-19T03:16:34;15.07;;;13.30;;
3757;SDS011;1894;51.038;13.692;2023-06-19T03:19:02;13.60;;;12.20;;
3757;SDS011;1894;51.038;13.692;2023-06-19T03:21:29;12.33;;;11.17;;
3757;SDS011;1894;51.038;13.692;2023-06-19T03:23:56;14.60;;;12.50;;
3757;SDS011;1894;51.038;13.692;2023-06-19T03:26:23;13.17;;;11.77;;
3757;SDS011;1894;51.038;13.692;2023-06-19T03:28:58;12.60;;;10.67;;
3757;SDS011;1894;51.038;13.692;2023-06-19T03:31:30;12.27;;;10.97;;
3757;SDS011;1894;51.038;13.692;2023-06-19T03:33:58;14.80;;;12.03;;
3757;SDS011;1894;51.038;13.692;2023-06-19T03:36:25;13.00;;;11.70;;
3757;SDS011;1894;51.038;13.692;2023-06-19T03:38:53;13.23;;;11.93;;
3757;SDS011;1894;51.038;13.692;2023-06-19T03:41:26;13.50;;;12.10;;
3757;SDS011;1894;51.038;13.692;2023-06-19T03:43:54;13.40;;;12.10;;
3757;SDS011;1894;51.038;13.692;2023-06-19T03:46:22;15.50;;;13.27;;
3757;SDS011;1894;51.038;13.692;2023-06-19T03:48:51;13.10;;;11.30;;
3757;SDS011;1894;51.038;13.692;2023-06-19T03:51:18;11.60;;;10.40;;
3757;SDS011;1894;51.038;13.692;2023-06-19T03:53:45;16.47;;;12.10;;
3757;SDS011;1894;51.038;13.692;2023-06-19T03:56:12;12.00;;;10.90;;
3757;SDS011;1894;51.038;13.692;2023-06-19T03:58:41;14.60;;;12.47;;
3757;SDS011;1894;51.038;13.692;2023-06-19T04:01:08;12.10;;;10.90;;
3757;SDS011;1894;51.038;13.692;2023-06-19T04:03:35;12.47;;;11.27;;
3757;SDS011;1894;51.038;13.692;2023-06-19T04:06:06;14.33;;;12.13;;
3757;SDS011;1894;51.038;13.692;2023-06-19T04:08:37;12.73;;;11.50;;
3757;SDS011;1894;51.038;13.692;2023-06-19T04:11:04;31.40;;;24.60;;
3757;SDS011;1894;51.038;13.692;2023-06-19T04:13:31;18.40;;;12.13;;
3757;SDS011;1894;51.038;13.692;2023-06-19T04:15:58;13.17;;;11.00;;
3757;SDS011;1894;51.038;13.692;2023-06-19T04:18:26;13.00;;;11.70;;
3757;SDS011;1894;51.038;13.692;2023-06-19T04:20:55;12.90;;;11.60;;
3757;SDS011;1894;51.038;13.692;2023-06-19T04:23:22;14.27;;;11.70;;
3757;SDS011;1894;51.038;13.692;2023-06-19T04:25:49;12.70;;;11.47;;
3757;SDS011;1894;51.038;13.692;2023-06-19T04:28:16;13.83;;;10.03;;
3757;SDS011;1894;51.038;13.692;2023-06-19T04:30:44;13.83;;;11.40;;
3757;SDS011;1894;51.038;13.692;2023-06-19T04:33:10;12.37;;;11.07;;
3757;SDS011;1894;51.038;13.692;2023-06-19T04:35:38;13.60;;;10.87;;
3757;SDS011;1894;51.038;13.692;2023-06-19T04:38:08;15.57;;;10.90;;
3757;SDS011;1894;51.038;13.692;2023-06-19T04:40:35;11.73;;;10.50;;
3757;SDS011;1894;51.038;13.692;2023-06-19T04:43:02;13.00;;;10.27;;
3757;SDS011;1894;51.038;13.692;2023-06-19T04:45:32;13.10;;;11.70;;
3757;SDS011;1894;51.038;13.692;2023-06-19T04:47:59;16.13;;;12.80;;
3757;SDS011;1894;51.038;13.692;2023-06-19T04:50:29;11.60;;;10.60;;
3757;SDS011;1894;51.038;13.692;2023-06-19T04:52:56;12.33;;;9.27;;
3757;SDS011;1894;51.038;13.692;2023-06-19T04:55:24;10.30;;;9.40;;
3757;SDS011;1894;51.038;13.692;2023-06-19T04:57:52;12.50;;;10.47;;
3757;SDS011;1894;51.038;13.692;2023-06-19T05:00:19;12.33;;;10.97;;
3757;SDS011;1894;51.038;13.692;2023-06-19T05:02:46;12.23;;;11.00;;
3757;SDS011;1894;51.038;13.692;2023-06-19T05:05:14;11.67;;;10.57;;
3757;SDS011;1894;51.038;13.692;2023-06-19T05:07:42;12.83;;;9.73;;
3757;SDS011;1894;51.038;13.692;2023-06-19T05:10:11;11.07;;;10.07;;
3757;SDS011;1894;51.038;13.692;2023-06-19T05:12:38;13.67;;;11.00;;
3757;SDS011;1894;51.038;13.692;2023-06-19T05:15:06;12.83;;;10.30;;
3757;SDS011;1894;51.038;13.692;2023-06-19T05:17:33;12.60;;;9.03;;
3757;SDS011;1894;51.038;13.692;2023-06-19T05:20:01;10.77;;;9.53;;
3757;SDS011;1894;51.038;13.692;2023-06-19T05:22:28;10.67;;;9.70;;
3757;SDS011;1894;51.038;13.692;2023-06-19T05:24:55;12.17;;;9.73;;
3757;SDS011;1894;51.038;13.692;2023-06-19T05:27:22;10.70;;;9.70;;
3757;SDS011;1894;51.038;13.692;2023-06-19T05:29:49;11.20;;;9.97;;
3757;SDS011;1894;51.038;13.692;2023-06-19T05:32:17;13.77;;;10.87;;
3757;SDS011;1894;51.038;13.692;2023-06-19T05:34:45;11.60;;;10.40;;
3757;SDS011;1894;51.038;13.692;2023-06-19T05:37:12;12.23;;;10.67;;
3757;SDS011;1894;51.038;13.692;2023-06-19T05:39:41;12.63;;;10.17;;
3757;SDS011;1894;51.038;13.692;2023-06-19T05:42:08;12.27;;;11.00;;
3757;SDS011;1894;51.038;13.692;2023-06-19T05:44:35;14.13;;;10.13;;
3757;SDS011;1894;51.038;13.692;2023-06-19T05:47:02;11.50;;;9.80;;
3757;SDS011;1894;51.038;13.692;2023-06-19T05:49:29;9.77;;;8.87;;
3757;SDS011;1894;51.038;13.692;2023-06-19T05:51:56;13.43;;;10.33;;
3757;SDS011;1894;51.038;13.692;2023-06-19T05:54:26;16.07;;;10.50;;
3757;SDS011;1894;51.038;13.692;2023-06-19T05:56:53;12.90;;;10.43;;
3757;SDS011;1894;51.038;13.692;2023-06-19T05:59:20;15.60;;;10.33;;
3757;SDS011;1894;51.038;13.692;2023-06-19T06:01:48;13.20;;;10.10;;
3757;SDS011;1894;51.038;13.692;2023-06-19T06:04:17;11.70;;;10.50;;
3757;SDS011;1894;51.038;13.692;2023-06-19T06:06:44;10.83;;;9.80;;
3757;SDS011;1894;51.038;13.692;2023-06-19T06:09:11;17.20;;;10.00;;
3757;SDS011;1894;51.038;13.692;2023-06-19T06:11:39;11.73;;;10.53;;
3757;SDS011;1894;51.038;13.692;2023-06-19T06:14:06;11.70;;;9.30;;
3757;SDS011;1894;51.038;13.692;2023-06-19T06:16:35;12.13;;;10.63;;
3757;SDS011;1894;51.038;13.692;2023-06-19T06:19:02;14.47;;;10.30;;
3757;SDS011;1894;51.038;13.692;2023-06-19T06:21:29;15.93;;;10.33;;
3757;SDS011;1894;51.038;13.692;2023-06-19T06:24:01;11.83;;;10.17;;
3757;SDS011;1894;51.038;13.692;2023-06-19T06:26:29;15.03;;;9.93;;
3757;SDS011;1894;51.038;13.692;2023-06-19T06:28:56;14.40;;;10.10;;
3757;SDS011;1894;51.038;13.692;2023-06-19T06:31:23;10.20;;;9.20;;
3757;SDS011;1894;51.038;13.692;2023-06-19T06:33:50;10.73;;;9.63;;
3757;SDS011;1894;51.038;13.692;2023-06-19T06:36:17;12.37;;;9.17;;
3757;SDS011;1894;51.038;13.692;2023-06-19T06:39:01;10.33;;;9.13;;
3757;SDS011;1894;51.038;13.692;2023-06-19T06:41:29;10.60;;;8.03;;
3757;SDS011;1894;51.038;13.692;2023-06-19T06:43:56;12.20;;;9.60;;
3757;SDS011;1894;51.038;13.692;2023-06-19T06:46:23;13.03;;;9.73;;
3757;SDS011;1894;51.038;13.692;2023-06-19T06:48:50;12.53;;;8.80;;
3757;SDS011;1894;51.038;13.692;2023-06-19T06:51:17;10.33;;;9.27;;
3757;SDS011;1894;51.038;13.692;2023-06-19T06:53:44;16.20;;;9.73;;
3757;SDS011;1894;51.038;13.692;2023-06-19T06:56:11;10.17;;;9.00;;
3757;SDS011;1894;51.038;13.692;2023-06-19T06:58:38;11.20;;;9.37;;
3757;SDS011;1894;51.038;13.692;2023-06-19T07:01:05;10.20;;;9.23;;
3757;SDS011;1894;51.038;13.692;2023-06-19T07:03:33;10.63;;;8.93;;
3757;SDS011;1894;51.038;13.692;2023-06-19T07:06:01;11.73;;;8.93;;
3757;SDS011;1894;51.038;13.692;2023-06-19T07:08:29;10.93;;;9.70;;
3757;SDS011;1894;51.038;13.692;2023-06-19T07:10:56;9.47;;;8.47;;
3757;SDS011;1894;51.038;13.692;2023-06-19T07:13:24;9.80;;;8.60;;
3757;SDS011;1894;51.038;13.692;2023-06-19T07:15:51;10.07;;;9.07;;
3757;SDS011;1894;51.038;13.692;2023-06-19T07:18:18;9.50;;;8.50;;
3757;SDS011;1894;51.038;13.692;2023-06-19T07:20:45;13.73;;;8.70;;
3757;SDS011;1894;51.038;13.692;2023-06-19T07:23:13;10.17;;;9.27;;
3757;SDS011;1894;51.038;13.692;2023-06-19T07:25:40;11.43;;;10.30;;
3757;SDS011;1894;51.038;13.692;2023-06-19T07:28:07;10.40;;;9.50;;
3757;SDS011;1894;51.038;13.692;2023-06-19T07:30:35;13.47;;;8.60;;
3757;SDS011;1894;51.038;13.692;2023-06-19T07:33:02;10.60;;;7.87;;
3757;SDS011;1894;51.038;13.692;2023-06-19T07:35:29;10.43;;;9.33;;
3757;SDS011;1894;51.038;13.692;2023-06-19T07:37:56;10.57;;;9.57;;
3757;SDS011;1894;51.038;13.692;2023-06-19T07:40:23;10.50;;;8.67;;
3757;SDS011;1894;51.038;13.692;2023-06-19T07:42:50;9.70;;;8.70;;
3757;SDS011;1894;51.038;13.692;2023-06-19T07:45:17;10.10;;;8.97;;
3757;SDS011;1894;51.038;13.692;2023-06-19T07:47:53;9.53;;;8.53;;
3757;SDS011;1894;51.038;13.692;2023-06-19T07:50:23;10.67;;;9.17;;
3757;SDS011;1894;51.038;13.692;2023-06-19T07:52:53;10.33;;;9.20;;
3757;SDS011;1894;51.038;13.692;2023-06-19T07:55:20;9.67;;;8.67;;
3757;SDS011;1894;51.038;13.692;2023-06-19T07:57:47;9.17;;;8.17;;
3757;SDS011;1894;51.038;13.692;2023-06-19T08:00:14;10.47;;;9.47;;
3757;SDS011;1894;51.038;13.692;2023-06-19T08:02:41;10.33;;;8.80;;
3757;SDS011;1894;51.038;13.692;2023-06-19T08:05:09;10.37;;;9.47;;
3757;SDS011;1894;51.038;13.692;2023-06-19T08:07:37;8.70;;;7.90;;
3757;SDS011;1894;51.038;13.692;2023-06-19T08:10:04;10.33;;;9.37;;
3757;SDS011;1894;51.038;13.692;2023-06-19T08:12:43;9.80;;;8.67;;
3757;SDS011;1894;51.038;13.692;2023-06-19T08:15:11;15.97;;;12.10;;
3757;SDS011;1894;51.038;13.692;2023-06-19T08:17:40;9.60;;;8.60;;
3757;SDS011;1894;51.038;13.692;2023-06-19T08:20:08;9.67;;;8.70;;
3757;SDS011;1894;51.038;13.692;2023-06-19T08:22:36;10.27;;;8.80;;
3757;SDS011;1894;51.038;13.692;2023-06-19T08:25:05;14.53;;;7.60;;
3757;SDS011;1894;51.038;13.692;2023-06-19T08:27:32;8.70;;;7.67;;
3757;SDS011;1894;51.038;13.692;2023-06-19T08:30:00;9.50;;;8.60;;
3757;SDS011;1894;51.038;13.692;2023-06-19T08:32:27;13.20;;;8.33;;
3757;SDS011;1894;51.038;13.692;2023-06-19T08:34:54;11.27;;;8.77;;
3757;SDS011;1894;51.038;13.692;2023-06-19T08:37:21;9.87;;;8.93;;
3757;SDS011;1894;51.038;13.692;2023-06-19T08:39:48;9.80;;;8.87;;
3757;SDS011;1894;51.038;13.692;2023-06-19T08:42:15;11.00;;;8.47;;
3757;SDS011;1894;51.038;13.692;2023-06-19T08:44:42;12.80;;;8.70;;
3757;SDS011;1894;51.038;13.692;2023-06-19T08:47:09;9.70;;;8.70;;
3757;SDS011;1894;51.038;13.692;2023-06-19T08:49:36;11.53;;;9.70;;
3757;SDS011;1894;51.038;13.692;2023-06-19T08:52:03;12.53;;;8.17;;
3757;SDS011;1894;51.038;13.692;2023-06-19T08:54:31;11.93;;;8.40;;
3757;SDS011;1894;51.038;13.692;2023-06-19T08:57:01;8.93;;;8.13;;
3757;SDS011;1894;51.038;13.692;2023-06-19T08:59:30;12.43;;;9.40;;
3757;SDS011;1894;51.038;13.692;2023-06-19T09:01:58;8.60;;;7.80;;
3757;SDS011;1894;51.038;13.692;2023-06-19T09:04:29;10.00;;;9.00;;
3757;SDS011;1894;51.038;13.692;2023-06-19T09:06:58;10.37;;;8.67;;
3757;SDS011;1894;51.038;13.692;2023-06-19T09:09:28;10.33;;;9.33;;
3757;SDS011;1894;51.038;13.692;2023-06-19T09:12:07;9.80;;;8.63;;
3757;SDS011;1894;51.038;13.692;2023-06-19T09:14:39;9.60;;;8.60;;
3757;SDS011;1894;51.038;13.692;2023-06-19T09:17:10;13.40;;;9.07;;
3757;SDS011;1894;51.038;13.692;2023-06-19T09:19:47;12.60;;;9.87;;
3757;SDS011;1894;51.038;13.692;2023-06-19T09:22:20;9.50;;;8.70;;
3757;SDS011;1894;51.038;13.692;2023-06-19T09:24:49;9.00;;;8.20;;
3757;SDS011;1894;51.038;13.692;2023-06-19T09:27:17;13.53;;;9.70;;
3757;SDS011;1894;51.038;13.692;2023-06-19T09:29:46;11.77;;;9.10;;
3757;SDS011;1894;51.038;13.692;2023-06-19T09:32:27;9.17;;;8.40;;
3757;SDS011;1894;51.038;13.692;2023-06-19T09:34:56;13.73;;;8.87;;
3757;SDS011;1894;51.038;13.692;2023-06-19T09:37:26;9.43;;;8.60;;
3757;SDS011;1894;51.038;13.692;2023-06-19T09:39:58;11.53;;;8.60;;
3757;SDS011;1894;51.038;13.692;2023-06-19T09:42:27;10.57;;;9.47;;
3757;SDS011;1894;51.038;13.692;2023-06-19T09:44:59;12.57;;;11.37;;
3757;SDS011;1894;51.038;13.692;2023-06-19T09:50:15;11.40;;;10.30;;
3757;SDS011;1894;51.038;13.692;2023-06-19T09:52:47;15.73;;;8.97;;
3757;SDS011;1894;51.038;13.692;2023-06-19T09:55:17;9.63;;;8.80;;
3757;SDS011;1894;51.038;13.692;2023-06-19T09:57:46;13.00;;;9.47;;
3757;SDS011;1894;51.038;13.692;2023-06-19T10:00:15;16.10;;;10.13;;
3757;SDS011;1894;51.038;13.692;2023-06-19T10:02:48;12.00;;;10.03;;
3757;SDS011;1894;51.038;13.692;2023-06-19T10:05:16;10.67;;;9.40;;
3757;SDS011;1894;51.038;13.692;2023-06-19T10:07:45;11.20;;;9.87;;
3757;SDS011;1894;51.038;13.692;2023-06-19T10:10:23;8.63;;;7.83;;
3757;SDS011;1894;51.038;13.692;2023-06-19T10:12:53;16.30;;;10.40;;
3757;SDS011;1894;51.038;13.692;2023-06-19T10:15:23;10.07;;;9.17;;
3757;SDS011;1894;51.038;13.692;2023-06-19T10:20:33;10.50;;;9.60;;
3757;SDS011;1894;51.038;13.692;2023-06-19T10:23:13;9.60;;;8.20;;
3757;SDS011;1894;51.038;13.692;2023-06-19T10:25:47;13.47;;;9.93;;
3757;SDS011;1894;51.038;13.692;2023-06-19T10:28:28;10.03;;;8.67;;
3757;SDS011;1894;51.038;13.692;2023-06-19T10:30:57;10.70;;;9.10;;
3757;SDS011;1894;51.038;13.692;2023-06-19T10:33:32;10.80;;;8.17;;
3757;SDS011;1894;51.038;13.692;2023-06-19T10:36:00;10.87;;;8.83;;
3757;SDS011;1894;51.038;13.692;2023-06-19T10:38:40;9.77;;;8.87;;
3757;SDS011;1894;51.038;13.692;2023-06-19T10:46:34;10.90;;;9.83;;
3757;SDS011;1894;51.038;13.692;2023-06-19T10:49:03;11.03;;;9.83;;
3757;SDS011;1894;51.038;13.692;2023-06-19T10:51:35;10.00;;;8.20;;
3757;SDS011;1894;51.038;13.692;2023-06-19T10:54:03;9.70;;;8.70;;
3757;SDS011;1894;51.038;13.692;2023-06-19T10:56:31;10.67;;;9.60;;
3757;SDS011;1894;51.038;13.692;2023-06-19T10:59:01;9.80;;;8.90;;
3757;SDS011;1894;51.038;13.692;2023-06-19T11:01:33;13.13;;;8.60;;
3757;SDS011;1894;51.038;13.692;2023-06-19T11:04:03;9.10;;;8.30;;
3757;SDS011;1894;51.038;13.692;2023-06-19T11:06:31;10.23;;;9.33;;
3757;SDS011;1894;51.038;13.692;2023-06-19T11:09:00;13.50;;;8.40;;
3757;SDS011;1894;51.038;13.692;2023-06-19T11:11:34;10.20;;;9.20;;
3757;SDS011;1894;51.038;13.692;2023-06-19T11:14:03;9.10;;;8.27;;
3757;SDS011;1894;51.038;13.692;2023-06-19T11:16:31;11.50;;;8.60;;
3757;SDS011;1894;51.038;13.692;2023-06-19T11:18:59;10.73;;;9.23;;
3757;SDS011;1894;51.038;13.692;2023-06-19T11:21:34;8.23;;;7.10;;
3757;SDS011;1894;51.038;13.692;2023-06-19T11:24:05;8.27;;;7.50;;
3757;SDS011;1894;51.038;13.692;2023-06-19T11:26:49;8.17;;;7.40;;
3757;SDS011;1894;51.038;13.692;2023-06-19T11:34:37;8.20;;;7.47;;
3757;SDS011;1894;51.038;13.692;2023-06-19T11:37:11;9.17;;;8.37;;
3757;SDS011;1894;51.038;13.692;2023-06-19T11:39:40;9.20;;;8.50;;
3757;SDS011;1894;51.038;13.692;2023-06-19T11:42:10;7.67;;;6.97;;
3757;SDS011;1894;51.038;13.692;2023-06-19T11:44:57;8.23;;;6.90;;
3757;SDS011;1894;51.038;13.692;2023-06-19T11:47:32;7.80;;;6.70;;
3757;SDS011;1894;51.038;13.692;2023-06-19T11:50:00;9.03;;;7.70;;
3757;SDS011;1894;51.038;13.692;2023-06-19T11:52:30;7.27;;;6.53;;
3757;SDS011;1894;51.038;13.692;2023-06-19T11:54:57;7.80;;;7.20;;
3757;SDS011;1894;51.038;13.692;2023-06-19T11:57:24;7.93;;;7.03;;
3757;SDS011;1894;51.038;13.692;2023-06-19T11:59:52;7.63;;;7.13;;
3757;SDS011;1894;51.038;13.692;2023-06-19T12:02:20;7.30;;;6.60;;
3757;SDS011;1894;51.038;13.692;2023-06-19T12:04:47;6.87;;;6.30;;
3757;SDS011;1894;51.038;13.692;2023-06-19T12:07:15;8.10;;;5.00;;
3757;SDS011;1894;51.038;13.692;2023-06-19T12:09:42;6.67;;;6.07;;
3757;SDS011;1894;51.038;13.692;2023-06-19T12:12:09;6.50;;;5.50;;
3757;SDS011;1894;51.038;13.692;2023-06-19T12:14:40;6.20;;;5.70;;
3757;SDS011;1894;51.038;13.692;2023-06-19T12:17:10;6.20;;;4.90;;
3757;SDS011;1894;51.038;13.692;2023-06-19T12:19:37;5.73;;;5.37;;
3757;SDS011;1894;51.038;13.692;2023-06-19T12:22:04;5.43;;;4.93;;
3757;SDS011;1894;51.038;13.692;2023-06-19T12:24:32;5.13;;;4.73;;
3757;SDS011;1894;51.038;13.692;2023-06-19T12:26:59;5.20;;;4.90;;
3757;SDS011;1894;51.038;13.692;2023-06-19T12:29:26;6.07;;;5.67;;
3757;SDS011;1894;51.038;13.692;2023-06-19T12:31:58;4.80;;;4.60;;
3757;SDS011;1894;51.038;13.692;2023-06-19T12:34:31;5.83;;;5.40;;
3757;SDS011;1894;51.038;13.692;2023-06-19T12:36:58;5.43;;;4.90;;
3757;SDS011;1894;51.038;13.692;2023-06-19T12:39:25;6.17;;;5.70;;
3757;SDS011;1894;51.038;13.692;2023-06-19T12:41:53;6.10;;;5.20;;
3757;SDS011;1894;51.038;13.692;2023-06-19T12:44:20;7.13;;;6.10;;
3757;SDS011;1894;51.038;13.692;2023-06-19T12:46:51;5.97;;;5.47;;
3757;SDS011;1894;51.038;13.692;2023-06-19T12:49:19;8.40;;;5.97;;
3757;SDS011;1894;51.038;13.692;2023-06-19T12:51:46;6.57;;;6.07;;
3757;SDS011;1894;51.038;13.692;2023-06-19T12:54:18;7.73;;;5.47;;
3757;SDS011;1894;51.038;13.692;2023-06-19T12:56:45;5.80;;;5.30;;
3757;SDS011;1894;51.038;13.692;2023-06-19T12:59:12;6.27;;;5.77;;
3757;SDS011;1894;51.038;13.692;2023-06-19T13:01:40;5.63;;;5.13;;
3757;SDS011;1894;51.038;13.692;2023-06-19T13:04:08;5.33;;;4.90;;
3757;SDS011;1894;51.038;13.692;2023-06-19T13:06:36;5.90;;;5.40;;
3757;SDS011;1894;51.038;13.692;2023-06-19T13:09:04;6.73;;;6.10;;
3757;SDS011;1894;51.038;13.692;2023-06-19T13:11:32;5.47;;;4.87;;
3757;SDS011;1894;51.038;13.692;2023-06-19T13:14:01;7.10;;;5.70;;
3757;SDS011;1894;51.038;13.692;2023-06-19T13:16:28;6.17;;;5.67;;
3757;SDS011;1894;51.038;13.692;2023-06-19T13:19:06;6.23;;;5.60;;
3757;SDS011;1894;51.038;13.692;2023-06-19T13:21:33;6.50;;;5.63;;
3757;SDS011;1894;51.038;13.692;2023-06-19T13:24:02;6.70;;;5.57;;
3757;SDS011;1894;51.038;13.692;2023-06-19T13:26:29;6.50;;;5.90;;
3757;SDS011;1894;51.038;13.692;2023-06-19T13:28:56;8.93;;;6.60;;
3757;SDS011;1894;51.038;13.692;2023-06-19T13:31:25;5.83;;;5.47;;
3757;SDS011;1894;51.038;13.692;2023-06-19T13:33:52;7.00;;;6.50;;
3757;SDS011;1894;51.038;13.692;2023-06-19T13:36:19;11.33;;;6.20;;
3757;SDS011;1894;51.038;13.692;2023-06-19T13:38:46;6.60;;;6.17;;
3757;SDS011;1894;51.038;13.692;2023-06-19T13:41:13;6.63;;;6.10;;
3757;SDS011;1894;51.038;13.692;2023-06-19T13:43:40;6.50;;;6.00;;
3757;SDS011;1894;51.038;13.692;2023-06-19T13:46:07;7.57;;;6.87;;
3757;SDS011;1894;51.038;13.692;2023-06-19T13:48:35;5.60;;;5.30;;
3757;SDS011;1894;51.038;13.692;2023-06-19T13:51:02;5.93;;;5.47;;
3757;SDS011;1894;51.038;13.692;2023-06-19T13:53:29;7.93;;;5.60;;
3757;SDS011;1894;51.038;13.692;2023-06-19T13:55:56;5.93;;;5.60;;
3757;SDS011;1894;51.038;13.692;2023-06-19T13:58:23;5.97;;;5.47;;
3757;SDS011;1894;51.038;13.692;2023-06-19T14:00:50;5.23;;;4.93;;
3757;SDS011;1894;51.038;13.692;2023-06-19T14:03:18;6.40;;;5.30;;
3757;SDS011;1894;51.038;13.692;2023-06-19T14:05:45;10.93;;;6.00;;
3757;SDS011;1894;51.038;13.692;2023-06-19T14:08:12;5.40;;;5.10;;
3757;SDS011;1894;51.038;13.692;2023-06-19T14:10:39;5.27;;;4.87;;
3757;SDS011;1894;51.038;13.692;2023-06-19T14:13:06;8.50;;;7.10;;
3757;SDS011;1894;51.038;13.692;2023-06-19T14:15:39;5.40;;;4.90;;
3757;SDS011;1894;51.038;13.692;2023-06-19T14:18:06;5.50;;;5.00;;
3757;SDS011;1894;51.038;13.692;2023-06-19T14:20:33;5.97;;;5.50;;
3757;SDS011;1894;51.038;13.692;2023-06-19T14:23:00;5.50;;;5.10;;
3757;SDS011;1894;51.038;13.692;2023-06-19T14:25:27;5.67;;;5.27;;
3757;SDS011;1894;51.038;13.692;2023-06-19T14:27:54;6.37;;;5.60;;
3757;SDS011;1894;51.038;13.692;2023-06-19T14:30:21;6.50;;;5.27;;
3757;SDS011;1894;51.038;13.692;2023-06-19T14:32:49;5.90;;;5.60;;
3757;SDS011;1894;51.038;13.692;2023-06-19T14:35:16;6.40;;;5.80;;
3757;SDS011;1894;51.038;13.692;2023-06-19T14:37:43;6.13;;;5.60;;
3757;SDS011;1894;51.038;13.692;2023-06-19T14:40:11;10.60;;;6.67;;
3757;SDS011;1894;51.038;13.692;2023-06-19T14:42:38;7.60;;;7.10;;
3757;SDS011;1894;51.038;13.692;2023-06-19T14:45:05;7.77;;;6.83;;
3757;SDS011;1894;51.038;13.692;2023-06-19T14:47:32;7.53;;;6.93;;
3757;SDS011;1894;51.038;13.692;2023-06-19T14:50:00;7.00;;;6.40;;
3757;SDS011;1894;51.038;13.692;2023-06-19T14:52:27;12.77;;;8.60;;
3757;SDS011;1894;51.038;13.692;2023-06-19T14:54:54;7.00;;;6.47;;
3757;SDS011;1894;51.038;13.692;2023-06-19T14:57:25;10.00;;;7.10;;
3757;SDS011;1894;51.038;13.692;2023-06-19T14:59:54;8.40;;;7.70;;
3757;SDS011;1894;51.038;13.692;2023-06-19T15:02:21;7.40;;;6.90;;
3757;SDS011;1894;51.038;13.692;2023-06-19T15:04:48;7.97;;;7.20;;
3757;SDS011;1894;51.038;13.692;2023-06-19T15:07:30;8.53;;;7.93;;
3757;SDS011;1894;51.038;13.692;2023-06-19T15:09:57;8.60;;;7.63;;
3757;SDS011;1894;51.038;13.692;2023-06-19T15:12:24;9.10;;;8.50;;
3757;SDS011;1894;51.038;13.692;2023-06-19T15:14:51;7.57;;;6.97;;